sensor_id;sensor_type;location;lat;lon;timestamp;temperature;humidity
8261;DHT22;64115;50.170;8.242;2023-04-03T00:00:34;1.40;99.90
8261;DHT22;64115;50.170;8.242;2023-04-03T00:03:01;1.40;99.90
8261;DHT22;64115;50.170;8.242;2023-04-03T00:05:28;1.50;99.90
8261;DHT22;64115;50.170;8.242;2023-04-03T00:07:55;1.50;99.90
8261;DHT22;64115;50.170;8.242;2023-04-03T00:10:24;1.50;99.90
8261;DHT22;64115;50.170;8.242;2023-04-03T00:12:51;1.50;99.90
8261;DHT22;64115;50.170;8.242;2023-04-03T00:15:18;1.60;99.90
8261;DHT22;64115;50.170;8.242;2023-04-03T00:17:45;1.70;99.90
8261;DHT22;64115;50.170;8.242;2023-04-03T00:20:12;1.70;99.90
8261;DHT22;64115;50.170;8.242;2023-04-03T00:22:39;1.70;99.90
8261;DHT22;64115;50.170;8.242;2023-04-03T00:25:07;1.60;99.90
8261;DHT22;64115;50.170;8.242;2023-04-03T00:27:37;1.60;99.90
8261;DHT22;64115;50.170;8.242;2023-04-03T00:30:06;1.70;99.90
8261;DHT22;64115;50.170;8.242;2023-04-03T00:32:33;1.70;99.90
8261;DHT22;64115;50.170;8.242;2023-04-03T00:35:01;1.80;99.90
8261;DHT22;64115;50.170;8.242;2023-04-03T00:37:28;1.80;99.90
8261;DHT22;64115;50.170;8.242;2023-04-03T00:39:56;1.80;99.90
8261;DHT22;64115;50.170;8.242;2023-04-03T00:42:23;1.80;99.90
8261;DHT22;64115;50.170;8.242;2023-04-03T00:45:27;1.80;99.90
8261;DHT22;64115;50.170;8.242;2023-04-03T00:47:56;1.90;99.90
8261;DHT22;64115;50.170;8.242;2023-04-03T00:50:25;1.90;99.90
8261;DHT22;64115;50.170;8.242;2023-04-03T00:52:53;2.00;99.90
8261;DHT22;64115;50.170;8.242;2023-04-03T00:55:20;1.90;99.90
8261;DHT22;64115;50.170;8.242;2023-04-03T00:57:48;1.90;99.90
8261;DHT22;64115;50.170;8.242;2023-04-03T01:00:17;1.90;99.90
8261;DHT22;64115;50.170;8.242;2023-04-03T01:02:47;1.90;99.90
8261;DHT22;64115;50.170;8.242;2023-04-03T01:05:16;2.00;99.90
8261;DHT22;64115;50.170;8.242;2023-04-03T01:07:45;1.90;99.90
8261;DHT22;64115;50.170;8.242;2023-04-03T01:10:15;1.90;99.90
8261;DHT22;64115;50.170;8.242;2023-04-03T01:12:44;1.90;99.90
8261;DHT22;64115;50.170;8.242;2023-04-03T01:15:14;1.90;99.90
8261;DHT22;64115;50.170;8.242;2023-04-03T01:17:42;1.90;99.90
8261;DHT22;64115;50.170;8.242;2023-04-03T01:20:45;1.90;99.90
8261;DHT22;64115;50.170;8.242;2023-04-03T01:23:36;1.90;99.90
8261;DHT22;64115;50.170;8.242;2023-04-03T01:26:06;1.90;99.90
8261;DHT22;64115;50.170;8.242;2023-04-03T01:28:36;1.90;99.90
8261;DHT22;64115;50.170;8.242;2023-04-03T01:31:12;1.90;99.90
8261;DHT22;64115;50.170;8.242;2023-04-03T01:33:43;1.90;99.90
8261;DHT22;64115;50.170;8.242;2023-04-03T01:36:15;1.90;99.90
8261;DHT22;64115;50.170;8.242;2023-04-03T01:38:42;1.90;99.90
8261;DHT22;64115;50.170;8.242;2023-04-03T01:41:09;1.90;99.90
8261;DHT22;64115;50.170;8.242;2023-04-03T01:43:36;1.90;99.90
8261;DHT22;64115;50.170;8.242;2023-04-03T01:46:04;1.80;99.90
8261;DHT22;64115;50.170;8.242;2023-04-03T01:48:31;1.80;99.90
8261;DHT22;64115;50.170;8.242;2023-04-03T01:50:59;1.80;99.90
8261;DHT22;64115;50.170;8.242;2023-04-03T01:53:26;1.80;99.90
8261;DHT22;64115;50.170;8.242;2023-04-03T01:55:53;1.90;99.90
8261;DHT22;64115;50.170;8.242;2023-04-03T01:58:20;1.80;99.90
8261;DHT22;64115;50.170;8.242;2023-04-03T02:00:47;1.80;99.90
8261;DHT22;64115;50.170;8.242;2023-04-03T02:03:14;1.80;99.90
8261;DHT22;64115;50.170;8.242;2023-04-03T02:05:41;1.80;99.90
8261;DHT22;64115;50.170;8.242;2023-04-03T02:08:10;1.80;99.90
8261;DHT22;64115;50.170;8.242;2023-04-03T02:10:37;1.80;99.90
8261;DHT22;64115;50.170;8.242;2023-04-03T02:13:04;1.80;99.90
8261;DHT22;64115;50.170;8.242;2023-04-03T02:15:31;1.80;99.90
8261;DHT22;64115;50.170;8.242;2023-04-03T02:17:58;1.80;99.90
8261;DHT22;64115;50.170;8.242;2023-04-03T02:20:25;1.80;99.90
8261;DHT22;64115;50.170;8.242;2023-04-03T02:22:52;1.70;99.90
8261;DHT22;64115;50.170;8.242;2023-04-03T02:25:21;1.70;99.90
8261;DHT22;64115;50.170;8.242;2023-04-03T02:27:48;1.70;99.90
8261;DHT22;64115;50.170;8.242;2023-04-03T02:30:15;1.70;99.90
8261;DHT22;64115;50.170;8.242;2023-04-03T02:32:43;1.80;99.90
8261;DHT22;64115;50.170;8.242;2023-04-03T02:35:11;1.70;99.90
8261;DHT22;64115;50.170;8.242;2023-04-03T02:37:38;1.70;99.90
8261;DHT22;64115;50.170;8.242;2023-04-03T02:40:06;1.70;99.90
8261;DHT22;64115;50.170;8.242;2023-04-03T02:42:35;1.70;99.90
8261;DHT22;64115;50.170;8.242;2023-04-03T02:45:03;1.70;99.90
8261;DHT22;64115;50.170;8.242;2023-04-03T02:47:30;1.70;99.90
8261;DHT22;64115;50.170;8.242;2023-04-03T02:49:57;1.70;99.90
8261;DHT22;64115;50.170;8.242;2023-04-03T02:52:24;1.60;99.90
8261;DHT22;64115;50.170;8.242;2023-04-03T02:54:51;1.60;99.90
8261;DHT22;64115;50.170;8.242;2023-04-03T02:57:18;1.50;99.90
8261;DHT22;64115;50.170;8.242;2023-04-03T02:59:46;1.50;99.90
8261;DHT22;64115;50.170;8.242;2023-04-03T03:02:13;1.60;99.90
8261;DHT22;64115;50.170;8.242;2023-04-03T03:04:40;1.50;99.90
8261;DHT22;64115;50.170;8.242;2023-04-03T03:07:08;1.50;99.90
8261;DHT22;64115;50.170;8.242;2023-04-03T03:09:35;1.50;99.90
8261;DHT22;64115;50.170;8.242;2023-04-03T03:12:02;1.40;99.90
8261;DHT22;64115;50.170;8.242;2023-04-03T03:14:29;1.40;99.90
8261;DHT22;64115;50.170;8.242;2023-04-03T03:16:58;1.40;99.90
8261;DHT22;64115;50.170;8.242;2023-04-03T03:19:25;1.30;99.90
8261;DHT22;64115;50.170;8.242;2023-04-03T03:21:52;1.30;99.90
8261;DHT22;64115;50.170;8.242;2023-04-03T03:24:19;1.30;99.90
8261;DHT22;64115;50.170;8.242;2023-04-03T03:26:46;1.30;99.90
8261;DHT22;64115;50.170;8.242;2023-04-03T03:29:13;1.20;99.90
8261;DHT22;64115;50.170;8.242;2023-04-03T03:31:40;1.30;99.90
8261;DHT22;64115;50.170;8.242;2023-04-03T03:34:08;1.20;99.90
8261;DHT22;64115;50.170;8.242;2023-04-03T03:36:36;1.20;99.90
8261;DHT22;64115;50.170;8.242;2023-04-03T03:39:03;1.20;99.90
8261;DHT22;64115;50.170;8.242;2023-04-03T03:41:30;1.10;99.90
8261;DHT22;64115;50.170;8.242;2023-04-03T03:43:57;1.10;99.90
8261;DHT22;64115;50.170;8.242;2023-04-03T03:46:24;1.00;99.90
8261;DHT22;64115;50.170;8.242;2023-04-03T03:48:51;1.00;99.90
8261;DHT22;64115;50.170;8.242;2023-04-03T03:51:19;0.90;99.90
8261;DHT22;64115;50.170;8.242;2023-04-03T03:53:46;0.90;99.90
8261;DHT22;64115;50.170;8.242;2023-04-03T03:56:13;0.80;99.90
8261;DHT22;64115;50.170;8.242;2023-04-03T03:58:40;0.80;99.90
8261;DHT22;64115;50.170;8.242;2023-04-03T04:01:07;0.80;99.90
8261;DHT22;64115;50.170;8.242;2023-04-03T04:03:34;0.70;99.90
8261;DHT22;64115;50.170;8.242;2023-04-03T04:06:02;0.60;99.90
8261;DHT22;64115;50.170;8.242;2023-04-03T04:08:31;0.60;99.90
8261;DHT22;64115;50.170;8.242;2023-04-03T04:10:58;0.60;99.90
8261;DHT22;64115;50.170;8.242;2023-04-03T04:13:25;0.50;99.90
8261;DHT22;64115;50.170;8.242;2023-04-03T04:15:52;0.50;99.90
8261;DHT22;64115;50.170;8.242;2023-04-03T04:18:19;0.50;99.90
8261;DHT22;64115;50.170;8.242;2023-04-03T04:20:48;0.50;99.90
8261;DHT22;64115;50.170;8.242;2023-04-03T04:23:16;0.40;99.90
8261;DHT22;64115;50.170;8.242;2023-04-03T04:25:46;0.30;99.90
8261;DHT22;64115;50.170;8.242;2023-04-03T04:28:13;0.30;99.90
8261;DHT22;64115;50.170;8.242;2023-04-03T04:30:40;0.30;99.90
8261;DHT22;64115;50.170;8.242;2023-04-03T04:33:07;0.30;99.90
8261;DHT22;64115;50.170;8.242;2023-04-03T04:35:34;0.20;99.90
8261;DHT22;64115;50.170;8.242;2023-04-03T04:38:02;0.30;99.90
8261;DHT22;64115;50.170;8.242;2023-04-03T04:40:29;0.20;99.90
8261;DHT22;64115;50.170;8.242;2023-04-03T04:42:57;0.20;99.90
8261;DHT22;64115;50.170;8.242;2023-04-03T04:45:24;0.10;99.90
8261;DHT22;64115;50.170;8.242;2023-04-03T04:47:53;0.10;99.90
8261;DHT22;64115;50.170;8.242;2023-04-03T04:50:21;0.20;99.90
8261;DHT22;64115;50.170;8.242;2023-04-03T04:52:48;0.20;99.90
8261;DHT22;64115;50.170;8.242;2023-04-03T04:55:15;0.10;99.90
8261;DHT22;64115;50.170;8.242;2023-04-03T04:57:42;0.10;99.90
8261;DHT22;64115;50.170;8.242;2023-04-03T05:00:13;0.00;99.90
8261;DHT22;64115;50.170;8.242;2023-04-03T05:02:40;0.00;99.90
8261;DHT22;64115;50.170;8.242;2023-04-03T05:05:08;-0.10;99.90
8261;DHT22;64115;50.170;8.242;2023-04-03T05:07:35;-0.20;99.90
8261;DHT22;64115;50.170;8.242;2023-04-03T05:10:03;-0.20;99.90
8261;DHT22;64115;50.170;8.242;2023-04-03T05:12:31;-0.30;99.90
8261;DHT22;64115;50.170;8.242;2023-04-03T05:14:58;-0.30;99.90
8261;DHT22;64115;50.170;8.242;2023-04-03T05:17:27;-0.30;99.90
8261;DHT22;64115;50.170;8.242;2023-04-03T05:19:54;-0.30;99.90
8261;DHT22;64115;50.170;8.242;2023-04-03T05:22:21;-0.30;99.90
8261;DHT22;64115;50.170;8.242;2023-04-03T05:24:48;-0.30;99.90
8261;DHT22;64115;50.170;8.242;2023-04-03T05:27:15;-0.30;99.90
8261;DHT22;64115;50.170;8.242;2023-04-03T05:29:42;-0.20;99.90
8261;DHT22;64115;50.170;8.242;2023-04-03T05:32:09;-0.20;99.90
8261;DHT22;64115;50.170;8.242;2023-04-03T05:34:38;-0.30;99.90
8261;DHT22;64115;50.170;8.242;2023-04-03T05:37:05;-0.20;99.90
8261;DHT22;64115;50.170;8.242;2023-04-03T05:39:32;-0.20;99.90
8261;DHT22;64115;50.170;8.242;2023-04-03T05:41:59;0.00;99.90
8261;DHT22;64115;50.170;8.242;2023-04-03T05:44:26;0.20;99.90
8261;DHT22;64115;50.170;8.242;2023-04-03T05:46:53;0.50;99.90
8261;DHT22;64115;50.170;8.242;2023-04-03T05:49:20;0.60;99.90
8261;DHT22;64115;50.170;8.242;2023-04-03T05:51:49;0.80;99.90
8261;DHT22;64115;50.170;8.242;2023-04-03T05:54:19;0.90;99.90
8261;DHT22;64115;50.170;8.242;2023-04-03T05:56:48;1.00;99.90
8261;DHT22;64115;50.170;8.242;2023-04-03T05:59:15;1.10;99.90
8261;DHT22;64115;50.170;8.242;2023-04-03T06:01:42;1.20;99.90
8261;DHT22;64115;50.170;8.242;2023-04-03T06:04:09;1.20;99.90
8261;DHT22;64115;50.170;8.242;2023-04-03T06:06:44;1.20;99.90
8261;DHT22;64115;50.170;8.242;2023-04-03T06:09:13;1.40;99.90
8261;DHT22;64115;50.170;8.242;2023-04-03T06:11:41;1.30;99.90
8261;DHT22;64115;50.170;8.242;2023-04-03T06:14:09;1.30;99.90
8261;DHT22;64115;50.170;8.242;2023-04-03T06:16:36;1.10;99.90
8261;DHT22;64115;50.170;8.242;2023-04-03T06:19:04;1.10;99.90
8261;DHT22;64115;50.170;8.242;2023-04-03T06:21:32;1.10;99.90
8261;DHT22;64115;50.170;8.242;2023-04-03T06:23:59;1.00;99.90
8261;DHT22;64115;50.170;8.242;2023-04-03T06:26:29;1.00;99.90
8261;DHT22;64115;50.170;8.242;2023-04-03T06:28:55;1.10;99.90
8261;DHT22;64115;50.170;8.242;2023-04-03T06:31:23;1.30;99.90
8261;DHT22;64115;50.170;8.242;2023-04-03T06:33:50;1.70;99.90
8261;DHT22;64115;50.170;8.242;2023-04-03T06:36:19;2.00;99.90
8261;DHT22;64115;50.170;8.242;2023-04-03T06:38:47;2.00;99.90
8261;DHT22;64115;50.170;8.242;2023-04-03T06:41:14;1.80;99.90
8261;DHT22;64115;50.170;8.242;2023-04-03T06:43:43;1.70;99.90
8261;DHT22;64115;50.170;8.242;2023-04-03T06:46:14;1.70;99.90
8261;DHT22;64115;50.170;8.242;2023-04-03T06:48:42;1.50;99.90
8261;DHT22;64115;50.170;8.242;2023-04-03T06:51:17;1.60;99.90
8261;DHT22;64115;50.170;8.242;2023-04-03T06:53:46;1.70;99.90
8261;DHT22;64115;50.170;8.242;2023-04-03T06:56:14;1.80;99.90
8261;DHT22;64115;50.170;8.242;2023-04-03T06:58:43;2.00;99.90
8261;DHT22;64115;50.170;8.242;2023-04-03T07:01:12;2.10;99.90
8261;DHT22;64115;50.170;8.242;2023-04-03T07:03:40;2.10;99.90
8261;DHT22;64115;50.170;8.242;2023-04-03T07:06:10;2.10;99.90
8261;DHT22;64115;50.170;8.242;2023-04-03T07:08:38;2.10;99.90
8261;DHT22;64115;50.170;8.242;2023-04-03T07:11:06;2.10;99.90
8261;DHT22;64115;50.170;8.242;2023-04-03T07:13:34;2.00;99.90
8261;DHT22;64115;50.170;8.242;2023-04-03T07:16:04;2.00;99.90
8261;DHT22;64115;50.170;8.242;2023-04-03T07:18:31;2.00;99.90
8261;DHT22;64115;50.170;8.242;2023-04-03T07:20:59;2.00;99.90
8261;DHT22;64115;50.170;8.242;2023-04-03T07:23:26;1.90;99.90
8261;DHT22;64115;50.170;8.242;2023-04-03T07:25:53;1.80;99.90
8261;DHT22;64115;50.170;8.242;2023-04-03T07:28:21;1.70;99.90
8261;DHT22;64115;50.170;8.242;2023-04-03T07:30:51;1.70;99.90
8261;DHT22;64115;50.170;8.242;2023-04-03T07:33:22;1.70;99.90
8261;DHT22;64115;50.170;8.242;2023-04-03T07:35:49;1.70;99.90
8261;DHT22;64115;50.170;8.242;2023-04-03T07:38:17;1.70;99.90
8261;DHT22;64115;50.170;8.242;2023-04-03T07:40:46;1.80;99.90
8261;DHT22;64115;50.170;8.242;2023-04-03T07:43:14;1.90;99.90
8261;DHT22;64115;50.170;8.242;2023-04-03T07:45:42;2.00;99.90
8261;DHT22;64115;50.170;8.242;2023-04-03T07:48:10;1.90;99.90
8261;DHT22;64115;50.170;8.242;2023-04-03T07:50:40;2.10;99.90
8261;DHT22;64115;50.170;8.242;2023-04-03T07:53:07;2.00;99.90
8261;DHT22;64115;50.170;8.242;2023-04-03T07:55:34;2.20;99.90
8261;DHT22;64115;50.170;8.242;2023-04-03T07:58:08;2.10;99.90
8261;DHT22;64115;50.170;8.242;2023-04-03T08:00:36;2.10;99.90
8261;DHT22;64115;50.170;8.242;2023-04-03T08:03:04;2.20;99.90
8261;DHT22;64115;50.170;8.242;2023-04-03T08:05:36;2.20;99.90
8261;DHT22;64115;50.170;8.242;2023-04-03T08:08:04;2.10;99.90
8261;DHT22;64115;50.170;8.242;2023-04-03T08:10:32;2.10;99.90
8261;DHT22;64115;50.170;8.242;2023-04-03T08:13:01;1.90;99.90
8261;DHT22;64115;50.170;8.242;2023-04-03T08:15:29;2.10;99.90
8261;DHT22;64115;50.170;8.242;2023-04-03T08:17:57;2.30;99.90
8261;DHT22;64115;50.170;8.242;2023-04-03T08:20:24;2.40;99.90
8261;DHT22;64115;50.170;8.242;2023-04-03T08:22:51;2.20;99.90
8261;DHT22;64115;50.170;8.242;2023-04-03T08:25:20;2.00;99.90
8261;DHT22;64115;50.170;8.242;2023-04-03T08:27:47;2.10;99.90
8261;DHT22;64115;50.170;8.242;2023-04-03T08:30:14;2.20;99.90
8261;DHT22;64115;50.170;8.242;2023-04-03T08:32:42;2.20;99.90
8261;DHT22;64115;50.170;8.242;2023-04-03T08:35:09;2.40;99.90
8261;DHT22;64115;50.170;8.242;2023-04-03T08:37:37;2.30;99.90
8261;DHT22;64115;50.170;8.242;2023-04-03T08:40:07;2.20;99.90
8261;DHT22;64115;50.170;8.242;2023-04-03T08:42:45;2.20;99.90
8261;DHT22;64115;50.170;8.242;2023-04-03T08:45:17;2.40;99.90
8261;DHT22;64115;50.170;8.242;2023-04-03T08:47:50;2.50;99.90
8261;DHT22;64115;50.170;8.242;2023-04-03T08:50:31;2.60;99.90
8261;DHT22;64115;50.170;8.242;2023-04-03T08:53:01;2.60;99.90
8261;DHT22;64115;50.170;8.242;2023-04-03T08:55:33;2.60;99.90
8261;DHT22;64115;50.170;8.242;2023-04-03T08:58:05;2.70;99.90
8261;DHT22;64115;50.170;8.242;2023-04-03T09:00:37;2.70;99.90
8261;DHT22;64115;50.170;8.242;2023-04-03T09:03:12;2.90;99.90
8261;DHT22;64115;50.170;8.242;2023-04-03T09:05:43;2.80;99.90
8261;DHT22;64115;50.170;8.242;2023-04-03T09:08:18;2.90;99.90
8261;DHT22;64115;50.170;8.242;2023-04-03T09:10:49;3.20;99.90
8261;DHT22;64115;50.170;8.242;2023-04-03T09:13:24;3.20;99.90
8261;DHT22;64115;50.170;8.242;2023-04-03T09:15:54;3.10;99.90
8261;DHT22;64115;50.170;8.242;2023-04-03T09:18:28;3.20;99.90
8261;DHT22;64115;50.170;8.242;2023-04-03T09:21:02;3.30;99.90
8261;DHT22;64115;50.170;8.242;2023-04-03T09:23:36;3.10;99.90
8261;DHT22;64115;50.170;8.242;2023-04-03T09:26:14;2.70;99.90
8261;DHT22;64115;50.170;8.242;2023-04-03T09:28:44;2.60;99.90
8261;DHT22;64115;50.170;8.242;2023-04-03T09:31:18;2.80;99.90
8261;DHT22;64115;50.170;8.242;2023-04-03T09:33:48;3.30;99.90
8261;DHT22;64115;50.170;8.242;2023-04-03T09:36:37;3.50;99.90
8261;DHT22;64115;50.170;8.242;2023-04-03T09:39:06;3.50;99.90
8261;DHT22;64115;50.170;8.242;2023-04-03T09:41:35;3.50;99.90
8261;DHT22;64115;50.170;8.242;2023-04-03T09:44:20;3.20;99.90
8261;DHT22;64115;50.170;8.242;2023-04-03T09:46:48;3.20;99.90
8261;DHT22;64115;50.170;8.242;2023-04-03T09:49:17;3.50;99.90
8261;DHT22;64115;50.170;8.242;2023-04-03T09:51:45;3.20;99.90
8261;DHT22;64115;50.170;8.242;2023-04-03T09:54:34;3.50;99.90
8261;DHT22;64115;50.170;8.242;2023-04-03T09:57:10;3.40;99.90
8261;DHT22;64115;50.170;8.242;2023-04-03T09:59:45;3.40;99.90
8261;DHT22;64115;50.170;8.242;2023-04-03T10:05:27;3.60;99.90
8261;DHT22;64115;50.170;8.242;2023-04-03T10:08:09;3.00;99.90
8261;DHT22;64115;50.170;8.242;2023-04-03T10:10:37;3.00;99.90
8261;DHT22;64115;50.170;8.242;2023-04-03T10:13:05;2.70;99.90
8261;DHT22;64115;50.170;8.242;2023-04-03T10:15:39;2.50;99.90
8261;DHT22;64115;50.170;8.242;2023-04-03T10:18:20;2.90;99.90
8261;DHT22;64115;50.170;8.242;2023-04-03T10:20:55;2.90;99.90
8261;DHT22;64115;50.170;8.242;2023-04-03T10:23:28;3.10;99.90
8261;DHT22;64115;50.170;8.242;2023-04-03T10:26:07;3.00;99.90
8261;DHT22;64115;50.170;8.242;2023-04-03T10:28:42;2.70;99.90
8261;DHT22;64115;50.170;8.242;2023-04-03T10:31:16;2.50;99.90
8261;DHT22;64115;50.170;8.242;2023-04-03T10:33:55;2.90;99.90
8261;DHT22;64115;50.170;8.242;2023-04-03T10:36:34;2.80;99.90
8261;DHT22;64115;50.170;8.242;2023-04-03T10:39:12;2.80;99.90
8261;DHT22;64115;50.170;8.242;2023-04-03T10:41:54;2.80;99.90
8261;DHT22;64115;50.170;8.242;2023-04-03T10:44:30;3.30;99.90
8261;DHT22;64115;50.170;8.242;2023-04-03T10:47:07;3.40;99.90
8261;DHT22;64115;50.170;8.242;2023-04-03T10:49:47;3.00;99.90
8261;DHT22;64115;50.170;8.242;2023-04-03T10:52:20;3.20;99.90
8261;DHT22;64115;50.170;8.242;2023-04-03T10:54:57;3.50;99.90
8261;DHT22;64115;50.170;8.242;2023-04-03T10:57:28;3.70;99.90
8261;DHT22;64115;50.170;8.242;2023-04-03T10:59:59;3.60;99.90
8261;DHT22;64115;50.170;8.242;2023-04-03T11:02:31;3.40;99.90
8261;DHT22;64115;50.170;8.242;2023-04-03T11:05:02;3.70;99.90
8261;DHT22;64115;50.170;8.242;2023-04-03T11:07:39;3.60;99.90
8261;DHT22;64115;50.170;8.242;2023-04-03T11:10:11;3.60;99.90
8261;DHT22;64115;50.170;8.242;2023-04-03T11:12:44;3.80;99.90
8261;DHT22;64115;50.170;8.242;2023-04-03T11:15:15;3.60;99.90
8261;DHT22;64115;50.170;8.242;2023-04-03T11:17:48;3.10;99.90
8261;DHT22;64115;50.170;8.242;2023-04-03T11:20:18;3.00;99.90
8261;DHT22;64115;50.170;8.242;2023-04-03T11:22:50;3.00;99.90
8261;DHT22;64115;50.170;8.242;2023-04-03T11:25:21;3.20;99.90
8261;DHT22;64115;50.170;8.242;2023-04-03T11:27:53;3.30;99.90
8261;DHT22;64115;50.170;8.242;2023-04-03T11:30:24;3.20;99.90
8261;DHT22;64115;50.170;8.242;2023-04-03T11:33:12;3.20;99.90
8261;DHT22;64115;50.170;8.242;2023-04-03T11:35:43;3.10;99.90
8261;DHT22;64115;50.170;8.242;2023-04-03T11:38:18;3.00;99.90
8261;DHT22;64115;50.170;8.242;2023-04-03T11:40:47;3.10;99.90
8261;DHT22;64115;50.170;8.242;2023-04-03T11:43:23;3.10;99.90
8261;DHT22;64115;50.170;8.242;2023-04-03T11:45:54;3.30;99.90
8261;DHT22;64115;50.170;8.242;2023-04-03T11:48:51;3.80;99.90
8261;DHT22;64115;50.170;8.242;2023-04-03T11:51:42;4.00;99.90
8261;DHT22;64115;50.170;8.242;2023-04-03T11:54:35;3.90;99.90
8261;DHT22;64115;50.170;8.242;2023-04-03T11:57:31;4.40;99.90
8261;DHT22;64115;50.170;8.242;2023-04-03T12:00:47;4.30;99.90
8261;DHT22;64115;50.170;8.242;2023-04-03T12:09:27;4.00;99.90
8261;DHT22;64115;50.170;8.242;2023-04-03T12:11:57;4.20;99.90
8261;DHT22;64115;50.170;8.242;2023-04-03T12:14:27;4.40;99.90
8261;DHT22;64115;50.170;8.242;2023-04-03T12:16:56;4.60;99.90
8261;DHT22;64115;50.170;8.242;2023-04-03T12:19:34;4.70;99.90
8261;DHT22;64115;50.170;8.242;2023-04-03T12:22:14;4.70;99.90
8261;DHT22;64115;50.170;8.242;2023-04-03T12:24:44;4.80;99.90
8261;DHT22;64115;50.170;8.242;2023-04-03T12:27:32;4.70;99.90
8261;DHT22;64115;50.170;8.242;2023-04-03T12:30:05;4.50;99.90
8261;DHT22;64115;50.170;8.242;2023-04-03T12:32:51;4.50;99.90
8261;DHT22;64115;50.170;8.242;2023-04-03T12:35:27;4.70;99.90
8261;DHT22;64115;50.170;8.242;2023-04-03T12:41:26;4.70;99.90
8261;DHT22;64115;50.170;8.242;2023-04-03T12:46:50;4.30;99.90
8261;DHT22;64115;50.170;8.242;2023-04-03T12:49:35;4.50;99.90
8261;DHT22;64115;50.170;8.242;2023-04-03T12:52:05;4.70;99.90
8261;DHT22;64115;50.170;8.242;2023-04-03T12:54:35;4.70;99.90
8261;DHT22;64115;50.170;8.242;2023-04-03T12:57:18;4.80;99.90
8261;DHT22;64115;50.170;8.242;2023-04-03T12:59:45;4.90;99.90
8261;DHT22;64115;50.170;8.242;2023-04-03T13:02:22;4.90;99.90
8261;DHT22;64115;50.170;8.242;2023-04-03T13:04:50;4.70;99.90
8261;DHT22;64115;50.170;8.242;2023-04-03T13:07:23;4.80;99.90
8261;DHT22;64115;50.170;8.242;2023-04-03T13:10:00;4.50;99.90
8261;DHT22;64115;50.170;8.242;2023-04-03T13:12:29;4.50;99.90
8261;DHT22;64115;50.170;8.242;2023-04-03T13:14:59;4.60;99.90
8261;DHT22;64115;50.170;8.242;2023-04-03T13:17:27;4.60;99.90
8261;DHT22;64115;50.170;8.242;2023-04-03T13:19:55;4.50;99.90
8261;DHT22;64115;50.170;8.242;2023-04-03T13:22:29;4.40;99.90
8261;DHT22;64115;50.170;8.242;2023-04-03T13:25:00;4.50;99.90
8261;DHT22;64115;50.170;8.242;2023-04-03T13:27:31;4.60;99.90
8261;DHT22;64115;50.170;8.242;2023-04-03T13:30:00;4.60;99.90
8261;DHT22;64115;50.170;8.242;2023-04-03T13:32:30;4.70;99.90
8261;DHT22;64115;50.170;8.242;2023-04-03T13:34:58;4.70;99.90
8261;DHT22;64115;50.170;8.242;2023-04-03T13:37:28;4.60;99.90
8261;DHT22;64115;50.170;8.242;2023-04-03T13:40:04;4.50;99.90
8261;DHT22;64115;50.170;8.242;2023-04-03T13:42:39;4.30;99.90
8261;DHT22;64115;50.170;8.242;2023-04-03T13:45:17;4.40;99.90
8261;DHT22;64115;50.170;8.242;2023-04-03T13:47:47;4.70;99.90
8261;DHT22;64115;50.170;8.242;2023-04-03T13:50:17;4.80;99.90
8261;DHT22;64115;50.170;8.242;2023-04-03T13:52:48;5.00;99.90
8261;DHT22;64115;50.170;8.242;2023-04-03T13:55:19;4.90;99.90
8261;DHT22;64115;50.170;8.242;2023-04-03T13:58:20;4.80;99.90
8261;DHT22;64115;50.170;8.242;2023-04-03T14:00:50;4.70;99.90
8261;DHT22;64115;50.170;8.242;2023-04-03T14:03:21;4.60;99.90
8261;DHT22;64115;50.170;8.242;2023-04-03T14:05:49;4.60;99.90
8261;DHT22;64115;50.170;8.242;2023-04-03T14:08:16;4.60;99.90
8261;DHT22;64115;50.170;8.242;2023-04-03T14:10:45;4.80;99.90
8261;DHT22;64115;50.170;8.242;2023-04-03T14:13:17;4.80;99.90
8261;DHT22;64115;50.170;8.242;2023-04-03T14:15:45;4.90;99.90
8261;DHT22;64115;50.170;8.242;2023-04-03T14:18:14;4.80;99.90
8261;DHT22;64115;50.170;8.242;2023-04-03T14:20:43;4.90;99.90
8261;DHT22;64115;50.170;8.242;2023-04-03T14:23:10;5.00;99.90
8261;DHT22;64115;50.170;8.242;2023-04-03T14:25:38;4.70;99.90
8261;DHT22;64115;50.170;8.242;2023-04-03T14:28:16;4.50;99.90
8261;DHT22;64115;50.170;8.242;2023-04-03T14:30:44;4.50;99.90
8261;DHT22;64115;50.170;8.242;2023-04-03T14:33:14;4.70;99.90
8261;DHT22;64115;50.170;8.242;2023-04-03T14:35:42;4.70;99.90
8261;DHT22;64115;50.170;8.242;2023-04-03T14:38:22;4.50;99.90
8261;DHT22;64115;50.170;8.242;2023-04-03T14:40:50;4.40;99.90
8261;DHT22;64115;50.170;8.242;2023-04-03T14:43:19;4.40;99.90
8261;DHT22;64115;50.170;8.242;2023-04-03T14:45:48;4.40;99.90
8261;DHT22;64115;50.170;8.242;2023-04-03T14:48:19;4.40;99.90
8261;DHT22;64115;50.170;8.242;2023-04-03T14:50:48;4.40;99.90
8261;DHT22;64115;50.170;8.242;2023-04-03T14:53:16;4.30;99.90
8261;DHT22;64115;50.170;8.242;2023-04-03T14:55:45;4.30;99.90
8261;DHT22;64115;50.170;8.242;2023-04-03T14:58:14;4.20;99.90
8261;DHT22;64115;50.170;8.242;2023-04-03T15:00:44;4.40;99.90
8261;DHT22;64115;50.170;8.242;2023-04-03T15:03:14;4.50;99.90
8261;DHT22;64115;50.170;8.242;2023-04-03T15:05:42;4.60;99.90
8261;DHT22;64115;50.170;8.242;2023-04-03T15:08:19;4.50;99.90
8261;DHT22;64115;50.170;8.242;2023-04-03T15:10:48;4.60;99.90
8261;DHT22;64115;50.170;8.242;2023-04-03T15:13:15;4.50;99.90
8261;DHT22;64115;50.170;8.242;2023-04-03T15:15:44;4.40;99.90
8261;DHT22;64115;50.170;8.242;2023-04-03T15:18:17;4.30;99.90
8261;DHT22;64115;50.170;8.242;2023-04-03T15:20:45;4.30;99.90
8261;DHT22;64115;50.170;8.242;2023-04-03T15:23:14;4.20;99.90
8261;DHT22;64115;50.170;8.242;2023-04-03T15:25:43;4.30;99.90
8261;DHT22;64115;50.170;8.242;2023-04-03T15:28:17;4.20;99.90
8261;DHT22;64115;50.170;8.242;2023-04-03T15:30:47;4.10;99.90
8261;DHT22;64115;50.170;8.242;2023-04-03T15:33:14;4.00;99.90
8261;DHT22;64115;50.170;8.242;2023-04-03T15:35:42;4.10;99.90
8261;DHT22;64115;50.170;8.242;2023-04-03T15:38:10;4.00;99.90
8261;DHT22;64115;50.170;8.242;2023-04-03T15:40:37;4.00;99.90
8261;DHT22;64115;50.170;8.242;2023-04-03T15:43:05;4.00;99.90
8261;DHT22;64115;50.170;8.242;2023-04-03T15:45:34;3.90;99.90
8261;DHT22;64115;50.170;8.242;2023-04-03T15:48:04;4.00;99.90
8261;DHT22;64115;50.170;8.242;2023-04-03T15:50:31;4.10;99.90
8261;DHT22;64115;50.170;8.242;2023-04-03T15:52:59;4.10;99.90
8261;DHT22;64115;50.170;8.242;2023-04-03T15:55:29;4.00;99.90
8261;DHT22;64115;50.170;8.242;2023-04-03T15:57:57;4.20;99.90
8261;DHT22;64115;50.170;8.242;2023-04-03T16:00:25;4.30;99.90
8261;DHT22;64115;50.170;8.242;2023-04-03T16:02:55;4.40;99.90
8261;DHT22;64115;50.170;8.242;2023-04-03T16:05:36;4.30;99.90
8261;DHT22;64115;50.170;8.242;2023-04-03T16:08:05;4.30;99.90
8261;DHT22;64115;50.170;8.242;2023-04-03T16:10:35;4.10;99.90
8261;DHT22;64115;50.170;8.242;2023-04-03T16:13:19;4.20;99.90
8261;DHT22;64115;50.170;8.242;2023-04-03T16:15:46;4.40;99.90
8261;DHT22;64115;50.170;8.242;2023-04-03T16:18:17;4.60;99.90
8261;DHT22;64115;50.170;8.242;2023-04-03T16:21:01;4.60;99.90
8261;DHT22;64115;50.170;8.242;2023-04-03T16:23:30;4.60;99.90
8261;DHT22;64115;50.170;8.242;2023-04-03T16:25:57;4.40;99.90
8261;DHT22;64115;50.170;8.242;2023-04-03T16:28:26;4.30;99.90
8261;DHT22;64115;50.170;8.242;2023-04-03T16:30:56;4.30;99.90
8261;DHT22;64115;50.170;8.242;2023-04-03T16:33:24;4.20;99.90
8261;DHT22;64115;50.170;8.242;2023-04-03T16:39:00;3.80;99.90
8261;DHT22;64115;50.170;8.242;2023-04-03T16:41:27;3.70;99.90